DATA ZE ZPRÁV METAR

Zprávy METAR jsou pravidelné letecké meteorologické zprávy o podmínkách na daném letišti, zejména o stavu oblačnosti, viditelnosti a průběhu počasí v poslední hodině. Na letištích s pravidelným provozem jsou vydávány každých 30 minut, jinak zpravidla jednou za hodinu. Ne každé letiště (zejména komerční) poskytuje zprávy po celých 24 hodin denně. Více o zprávách METAR najdete na této stránce.

Zprávy METAR z letišť v blízkém okolí

LKPR - Praha Ruzyně, Česká republika
Směr a vzdálenost od této stanice: ZJZ 98km
Aktualizováno: 23.10.2017 10:00
Skoro zataženo
Skoro zataženo
 Vítr ze směru Z
Vítr: Z 20 km/h
Teplota: 9°C
Chlad větru: 6°C
Rosný bod: 6°C
Vlhkost: 82%
Tlak vzduchu: 1015 hPa
Oblačnost: Skoro zataženo
Dohlednost: 10 km
Detaily oblačnosti: Skoro zataženo 1311 m
2017/10/23 08:00 LKPR 230800Z 28011KT 9999 BKN043 09/06 Q1015 NOSIG
LKTB - Brno Tuřany, Česká republika
Směr a vzdálenost od této stanice: JJV 174km
Aktualizováno: 23.10.2017 10:00
Jasno, Jasná obloha
Jasno, Jasná obloha
 Vítr ze směru SSZ
Vítr: SSZ 24 km/h
Teplota: 9°C
Chlad větru: 6°C
Rosný bod: 6°C
Vlhkost: 82%
Tlak vzduchu: 1013 hPa
Stav počasí: Jasno
Oblačnost: Jasná obloha
Dohlednost: více než 10 km
2017/10/23 08:00 LKTB 230800Z 33013KT CAVOK 09/06 Q1013 NOSIG
 
LKKV - Karlovy Vary, Česká republika
Směr a vzdálenost od této stanice: Z 187km
Aktualizováno: 23.10.2017 10:00
Skoro zataženo
Skoro zataženo
 Vítr ze směru ZJZ
Vítr: ZJZ 11 km/h
Teplota: 6°C
Chlad větru: 4°C
Rosný bod: 5°C
Vlhkost: 93%
Tlak vzduchu: 1016 hPa
Oblačnost: Skoro zataženo
Dohlednost: 10 km
Detaily oblačnosti: Polojasno 244 m
Skoro zataženo 1097 m
2017/10/23 08:00 LKKV 230800Z 25006KT 220V280 9999 SCT008 BKN036 06/05 Q1016
LKMT - Ostrava Mošnov, Česká republika
Směr a vzdálenost od této stanice: VJV 208km
Aktualizováno: 23.10.2017 10:00
Skoro zataženo
Skoro zataženo
 Vítr ze směru S
Vítr: S 13 km/h
Teplota: 8°C
Chlad větru: 6°C
Rosný bod: 7°C
Vlhkost: 93%
Tlak vzduchu: 1012 hPa
Oblačnost: Skoro zataženo
Dohlednost: 10 km
Detaily oblačnosti: Skoro zataženo 457 m
2017/10/23 08:00 LKMT 230800Z 01007KT 9999 BKN015 08/07 Q1012 NOSIG
 
LKPD - Pardubice, Česká republika
Směr a vzdálenost od této stanice: JJV 56km
Aktualizováno: 23.10.2017 09:33
Zataženo
Zataženo
 Vítr ze směru ZSZ
Vítr: ZSZ 17 km/h
Teplota: 8°C
Chlad větru: 5°C
Rosný bod: 7°C
Vlhkost: 93%
Tlak vzduchu: 1014 hPa
Oblačnost: Zataženo
Dohlednost: 10 km
Detaily oblačnosti: Skoro jasno 183 m
Skoro zataženo 305 m
Zataženo 1097 m
2017/10/23 07:33 LKPD 230733Z 29009KT 9999 FEW006 BKN010 OVC036 08/07 Q1014 RMK GRN
LKKB - Praha Kbely, Česká republika
Směr a vzdálenost od této stanice: ZJZ 81km
Aktualizováno: 23.10.2017 10:00
Skoro zataženo
Skoro zataženo
 Vítr ze směru Z
Vítr: Z 15 km/h
Teplota: 9°C
Chlad větru: 7°C
Rosný bod: 7°C
Vlhkost: 87%
Tlak vzduchu: 1016 hPa
Oblačnost: Skoro zataženo
Dohlednost: 10 km
Detaily oblačnosti: Polojasno 1006 m
Skoro zataženo 1341 m
2017/10/23 08:00 LKKB 230800Z 28008KT 9999 SCT033 BKN044 09/07 Q1016 NOSIG
 
LKCV - Čáslav, Česká republika
Směr a vzdálenost od této stanice: J 63km
Aktualizováno: 23.10.2017 10:00
Zataženo
Zataženo
 Vítr ze směru ZSZ
Vítr: ZSZ 24 km/h
Teplota: 9°C
Chlad větru: 6°C
Rosný bod: 7°C
Vlhkost: 87%
Tlak vzduchu: 1015 hPa
Oblačnost: Zataženo
Dohlednost: 10 km
Detaily oblačnosti: Zataženo 671 m
2017/10/23 08:00 LKCV 230800Z 30013KT 9999 OVC022 09/07 Q1015 NOSIG RMK WHT WHT
LKNA - Náměšť n. Osl., Česká republika
Směr a vzdálenost od této stanice: JJV 154km
Aktualizováno: 23.10.2017 10:00
Zataženo
Zataženo
 Vítr ze směru SZ
Vítr: SZ 22 km/h
Teplota: 7°C
Chlad větru: 4°C
Rosný bod: 5°C
Vlhkost: 87%
Tlak vzduchu: 1014 hPa
Oblačnost: Zataženo
Dohlednost: 10 km
Detaily oblačnosti: Skoro zataženo 305 m
Zataženo 610 m
2017/10/23 08:00 LKNA 230800Z 31012KT 9999 BKN010 OVC020 07/05 Q1014 NOSIG RMK GRN GRN
 
LKLN - Plzeň Líně, Česká republika
Směr a vzdálenost od této stanice: ZJZ 184km
Aktualizováno: 23.10.2017 10:00
Skoro zataženo
Skoro zataženo
 Vítr ze směru Z
Vítr: Z 9 km/h
Teplota: 8°C
Chlad větru: 6°C
Rosný bod: 5°C
Vlhkost: 82%
Tlak vzduchu: 1017 hPa
Oblačnost: Skoro zataženo
Dohlednost: 10 km
Detaily oblačnosti: Polojasno 1402 m
Skoro zataženo 1615 m
2017/10/23 08:00 LKLN 230800Z AUTO 27005KT 230V300 9999 SCT046 BKN053 08/05 Q1017
EDDC - Dresden Klotzsch, Německo
Směr a vzdálenost od této stanice: ZSZ 142km
Aktualizováno: 23.10.2017 09:50
Skoro zataženo
Skoro zataženo
 Vítr ze směru Z
Vítr: Z 13 km/h
Teplota: 9°C
Chlad větru: 7°C
Rosný bod: 7°C
Vlhkost: 87%
Tlak vzduchu: 1016 hPa
Oblačnost: Skoro zataženo
Dohlednost: 10 km
Detaily oblačnosti: Skoro zataženo 1372 m
2017/10/23 07:50 EDDC 230750Z 27007KT 240V300 9999 BKN045 09/07 Q1016 NOSIG